sensor_id;sensor_type;location;lat;lon;timestamp;P1;durP1;ratioP1;P2;durP2;ratioP2
28862;SDS011;15994;51.796;13.006;2023-07-09T15:54:23;13.48;;;3.45;;
28862;SDS011;15994;51.796;13.006;2023-07-09T15:56:51;5.43;;;3.00;;
28862;SDS011;15994;51.796;13.006;2023-07-09T15:59:29;4.75;;;3.25;;
28862;SDS011;15994;51.796;13.006;2023-07-09T16:01:58;4.45;;;3.35;;
28862;SDS011;15994;51.796;13.006;2023-07-09T16:04:25;4.05;;;2.90;;
28862;SDS011;15994;51.796;13.006;2023-07-09T16:06:53;4.55;;;3.30;;
28862;SDS011;15994;51.796;13.006;2023-07-09T16:09:20;4.03;;;2.85;;
28862;SDS011;15994;51.796;13.006;2023-07-09T16:11:50;5.20;;;3.55;;
28862;SDS011;15994;51.796;13.006;2023-07-09T16:16:50;6.50;;;3.28;;
28862;SDS011;15994;51.796;13.006;2023-07-09T16:19:22;4.28;;;2.88;;
28862;SDS011;15994;51.796;13.006;2023-07-09T16:21:51;5.03;;;3.30;;
28862;SDS011;15994;51.796;13.006;2023-07-09T16:24:41;4.60;;;3.10;;
28862;SDS011;15994;51.796;13.006;2023-07-09T16:27:06;4.05;;;2.95;;
28862;SDS011;15994;51.796;13.006;2023-07-09T16:29:39;4.72;;;3.20;;
28862;SDS011;15994;51.796;13.006;2023-07-09T16:32:06;5.90;;;3.30;;
28862;SDS011;15994;51.796;13.006;2023-07-09T16:34:33;5.15;;;3.30;;
28862;SDS011;15994;51.796;13.006;2023-07-09T16:37:00;4.75;;;3.13;;
28862;SDS011;15994;51.796;13.006;2023-07-09T16:39:32;6.15;;;3.17;;
28862;SDS011;15994;51.796;13.006;2023-07-09T16:42:04;5.68;;;3.25;;
28862;SDS011;15994;51.796;13.006;2023-07-09T16:44:35;5.82;;;3.17;;
28862;SDS011;15994;51.796;13.006;2023-07-09T16:47:02;5.05;;;2.97;;
28862;SDS011;15994;51.796;13.006;2023-07-09T16:49:39;8.25;;;2.80;;
28862;SDS011;15994;51.796;13.006;2023-07-09T16:52:17;8.20;;;3.38;;
28862;SDS011;15994;51.796;13.006;2023-07-09T16:54:45;4.63;;;2.72;;
28862;SDS011;15994;51.796;13.006;2023-07-09T16:59:43;4.93;;;3.05;;
28862;SDS011;15994;51.796;13.006;2023-07-09T17:04:54;5.15;;;3.03;;
28862;SDS011;15994;51.796;13.006;2023-07-09T17:07:22;5.72;;;3.13;;
28862;SDS011;15994;51.796;13.006;2023-07-09T17:09:49;4.75;;;3.30;;
28862;SDS011;15994;51.796;13.006;2023-07-09T17:12:15;3.85;;;2.90;;
28862;SDS011;15994;51.796;13.006;2023-07-09T17:14:43;5.07;;;3.10;;
28862;SDS011;15994;51.796;13.006;2023-07-09T17:17:13;8.18;;;5.13;;
28862;SDS011;15994;51.796;13.006;2023-07-09T17:19:40;8.82;;;4.43;;
28862;SDS011;15994;51.796;13.006;2023-07-09T17:22:13;4.72;;;3.45;;
28862;SDS011;15994;51.796;13.006;2023-07-09T17:24:57;5.15;;;3.08;;
28862;SDS011;15994;51.796;13.006;2023-07-09T17:27:25;6.53;;;3.13;;
28862;SDS011;15994;51.796;13.006;2023-07-09T17:29:51;5.10;;;3.30;;
28862;SDS011;15994;51.796;13.006;2023-07-09T17:32:18;5.28;;;3.30;;
28862;SDS011;15994;51.796;13.006;2023-07-09T17:34:45;4.30;;;3.08;;
28862;SDS011;15994;51.796;13.006;2023-07-09T17:37:12;6.38;;;3.08;;
28862;SDS011;15994;51.796;13.006;2023-07-09T17:39:41;4.43;;;2.83;;
28862;SDS011;15994;51.796;13.006;2023-07-09T17:42:11;5.20;;;3.20;;
28862;SDS011;15994;51.796;13.006;2023-07-09T17:44:38;4.18;;;2.92;;
28862;SDS011;15994;51.796;13.006;2023-07-09T17:47:10;4.35;;;2.75;;
28862;SDS011;15994;51.796;13.006;2023-07-09T17:49:40;4.45;;;3.00;;
28862;SDS011;15994;51.796;13.006;2023-07-09T17:52:17;5.05;;;3.38;;
28862;SDS011;15994;51.796;13.006;2023-07-09T17:54:45;4.53;;;2.70;;
28862;SDS011;15994;51.796;13.006;2023-07-09T17:57:20;4.90;;;3.53;;
28862;SDS011;15994;51.796;13.006;2023-07-09T17:59:51;5.25;;;3.30;;
28862;SDS011;15994;51.796;13.006;2023-07-09T18:02:25;5.65;;;3.58;;
28862;SDS011;15994;51.796;13.006;2023-07-09T18:04:52;5.38;;;3.50;;
28862;SDS011;15994;51.796;13.006;2023-07-09T18:07:22;5.55;;;3.70;;
28862;SDS011;15994;51.796;13.006;2023-07-09T18:09:49;4.22;;;3.33;;
28862;SDS011;15994;51.796;13.006;2023-07-09T18:12:17;5.13;;;2.88;;
28862;SDS011;15994;51.796;13.006;2023-07-09T18:14:47;5.13;;;3.35;;
28862;SDS011;15994;51.796;13.006;2023-07-09T18:17:21;5.10;;;3.20;;
28862;SDS011;15994;51.796;13.006;2023-07-09T18:19:51;6.55;;;3.30;;
28862;SDS011;15994;51.796;13.006;2023-07-09T18:22:19;5.63;;;3.35;;
28862;SDS011;15994;51.796;13.006;2023-07-09T18:24:47;7.15;;;3.30;;
28862;SDS011;15994;51.796;13.006;2023-07-09T18:27:18;5.28;;;3.55;;
28862;SDS011;15994;51.796;13.006;2023-07-09T18:29:49;7.07;;;3.80;;
28862;SDS011;15994;51.796;13.006;2023-07-09T18:32:18;6.18;;;3.45;;
28862;SDS011;15994;51.796;13.006;2023-07-09T18:34:48;6.53;;;4.47;;
28862;SDS011;15994;51.796;13.006;2023-07-09T18:37:16;5.88;;;3.50;;
28862;SDS011;15994;51.796;13.006;2023-07-09T18:39:43;6.05;;;3.47;;
28862;SDS011;15994;51.796;13.006;2023-07-09T18:42:13;6.03;;;3.55;;
28862;SDS011;15994;51.796;13.006;2023-07-09T18:44:40;4.80;;;3.45;;
28862;SDS011;15994;51.796;13.006;2023-07-09T18:47:11;5.53;;;3.72;;
28862;SDS011;15994;51.796;13.006;2023-07-09T18:49:39;5.38;;;3.35;;
28862;SDS011;15994;51.796;13.006;2023-07-09T18:52:14;7.13;;;3.63;;
28862;SDS011;15994;51.796;13.006;2023-07-09T18:54:41;7.90;;;3.65;;
28862;SDS011;15994;51.796;13.006;2023-07-09T18:57:08;5.07;;;3.42;;
28862;SDS011;15994;51.796;13.006;2023-07-09T18:59:35;7.50;;;3.58;;
28862;SDS011;15994;51.796;13.006;2023-07-09T19:02:04;5.55;;;3.58;;
28862;SDS011;15994;51.796;13.006;2023-07-09T19:04:36;10.45;;;3.58;;
28862;SDS011;15994;51.796;13.006;2023-07-09T19:07:03;5.68;;;3.88;;
28862;SDS011;15994;51.796;13.006;2023-07-09T19:09:30;9.27;;;3.85;;
28862;SDS011;15994;51.796;13.006;2023-07-09T19:11:57;8.07;;;3.95;;
28862;SDS011;15994;51.796;13.006;2023-07-09T19:14:24;9.30;;;3.90;;
28862;SDS011;15994;51.796;13.006;2023-07-09T19:16:53;7.72;;;4.03;;
28862;SDS011;15994;51.796;13.006;2023-07-09T19:19:20;9.40;;;4.10;;
28862;SDS011;15994;51.796;13.006;2023-07-09T19:21:51;8.48;;;3.97;;
28862;SDS011;15994;51.796;13.006;2023-07-09T19:24:20;6.45;;;3.63;;
28862;SDS011;15994;51.796;13.006;2023-07-09T19:26:54;5.60;;;3.60;;
28862;SDS011;15994;51.796;13.006;2023-07-09T19:29:22;5.57;;;4.13;;
28862;SDS011;15994;51.796;13.006;2023-07-09T19:31:52;6.53;;;3.80;;
28862;SDS011;15994;51.796;13.006;2023-07-09T19:34:29;5.78;;;3.80;;
28862;SDS011;15994;51.796;13.006;2023-07-09T19:36:57;6.43;;;3.30;;
28862;SDS011;15994;51.796;13.006;2023-07-09T19:39:35;6.20;;;3.60;;
28862;SDS011;15994;51.796;13.006;2023-07-09T19:44:41;7.00;;;3.92;;
28862;SDS011;15994;51.796;13.006;2023-07-09T19:47:18;7.20;;;3.70;;
28862;SDS011;15994;51.796;13.006;2023-07-09T19:49:47;5.93;;;3.85;;
28862;SDS011;15994;51.796;13.006;2023-07-09T19:52:15;5.00;;;3.75;;
28862;SDS011;15994;51.796;13.006;2023-07-09T19:54:42;5.78;;;3.95;;
28862;SDS011;15994;51.796;13.006;2023-07-09T19:57:10;4.95;;;3.90;;
28862;SDS011;15994;51.796;13.006;2023-07-09T19:59:37;5.88;;;3.58;;
28862;SDS011;15994;51.796;13.006;2023-07-09T20:02:17;6.45;;;4.35;;
28862;SDS011;15994;51.796;13.006;2023-07-09T20:04:46;5.68;;;3.90;;
28862;SDS011;15994;51.796;13.006;2023-07-09T20:07:13;6.10;;;4.05;;
28862;SDS011;15994;51.796;13.006;2023-07-09T20:09:40;6.63;;;3.70;;
28862;SDS011;15994;51.796;13.006;2023-07-09T20:12:14;4.90;;;3.97;;
28862;SDS011;15994;51.796;13.006;2023-07-09T20:14:42;6.17;;;4.17;;
28862;SDS011;15994;51.796;13.006;2023-07-09T20:17:09;14.02;;;10.55;;
28862;SDS011;15994;51.796;13.006;2023-07-09T20:19:37;19.63;;;12.65;;
28862;SDS011;15994;51.796;13.006;2023-07-09T20:22:04;18.15;;;11.32;;
28862;SDS011;15994;51.796;13.006;2023-07-09T20:24:31;9.45;;;6.70;;
28862;SDS011;15994;51.796;13.006;2023-07-09T20:26:58;7.32;;;4.72;;
28862;SDS011;15994;51.796;13.006;2023-07-09T20:29:26;8.50;;;5.55;;
28862;SDS011;15994;51.796;13.006;2023-07-09T20:31:53;6.30;;;4.80;;
28862;SDS011;15994;51.796;13.006;2023-07-09T20:34:22;5.93;;;3.85;;
28862;SDS011;15994;51.796;13.006;2023-07-09T20:36:50;6.32;;;3.97;;
28862;SDS011;15994;51.796;13.006;2023-07-09T20:39:21;5.57;;;4.20;;
28862;SDS011;15994;51.796;13.006;2023-07-09T20:41:49;5.47;;;4.10;;
28862;SDS011;15994;51.796;13.006;2023-07-09T20:44:18;5.80;;;4.20;;
28862;SDS011;15994;51.796;13.006;2023-07-09T20:46:45;6.55;;;4.20;;
28862;SDS011;15994;51.796;13.006;2023-07-09T20:49:32;8.75;;;4.15;;
28862;SDS011;15994;51.796;13.006;2023-07-09T20:52:01;5.32;;;3.63;;
28862;SDS011;15994;51.796;13.006;2023-07-09T20:54:28;5.85;;;4.18;;
28862;SDS011;15994;51.796;13.006;2023-07-09T20:56:56;7.38;;;4.53;;
28862;SDS011;15994;51.796;13.006;2023-07-09T20:59:24;8.40;;;4.03;;
28862;SDS011;15994;51.796;13.006;2023-07-09T21:01:52;7.05;;;4.40;;
28862;SDS011;15994;51.796;13.006;2023-07-09T21:04:20;7.30;;;4.22;;
28862;SDS011;15994;51.796;13.006;2023-07-09T21:06:48;7.03;;;4.63;;
28862;SDS011;15994;51.796;13.006;2023-07-09T21:09:28;7.00;;;4.18;;
28862;SDS011;15994;51.796;13.006;2023-07-09T21:11:55;7.18;;;4.30;;
28862;SDS011;15994;51.796;13.006;2023-07-09T21:14:23;6.00;;;3.92;;
28862;SDS011;15994;51.796;13.006;2023-07-09T21:16:51;5.97;;;4.20;;
28862;SDS011;15994;51.796;13.006;2023-07-09T21:19:23;5.50;;;4.15;;
28862;SDS011;15994;51.796;13.006;2023-07-09T21:21:50;8.07;;;4.70;;
28862;SDS011;15994;51.796;13.006;2023-07-09T21:24:19;6.63;;;4.43;;
28862;SDS011;15994;51.796;13.006;2023-07-09T21:26:48;5.20;;;3.72;;
28862;SDS011;15994;51.796;13.006;2023-07-09T21:29:15;7.75;;;4.50;;
28862;SDS011;15994;51.796;13.006;2023-07-09T21:31:43;6.18;;;4.63;;
28862;SDS011;15994;51.796;13.006;2023-07-09T21:34:14;7.50;;;4.50;;
28862;SDS011;15994;51.796;13.006;2023-07-09T21:36:42;5.78;;;4.20;;
28862;SDS011;15994;51.796;13.006;2023-07-09T21:39:19;6.30;;;4.15;;
28862;SDS011;15994;51.796;13.006;2023-07-09T21:41:50;5.75;;;4.25;;
28862;SDS011;15994;51.796;13.006;2023-07-09T21:44:19;5.65;;;4.65;;
28862;SDS011;15994;51.796;13.006;2023-07-09T21:46:46;7.82;;;4.82;;
28862;SDS011;15994;51.796;13.006;2023-07-09T21:49:15;6.95;;;4.68;;
28862;SDS011;15994;51.796;13.006;2023-07-09T21:51:43;6.32;;;4.07;;
28862;SDS011;15994;51.796;13.006;2023-07-09T21:56:40;7.53;;;4.40;;
28862;SDS011;15994;51.796;13.006;2023-07-09T21:59:06;7.88;;;4.38;;
28862;SDS011;15994;51.796;13.006;2023-07-09T22:01:34;5.78;;;4.25;;
28862;SDS011;15994;51.796;13.006;2023-07-09T22:04:01;6.18;;;4.78;;
28862;SDS011;15994;51.796;13.006;2023-07-09T22:06:28;8.68;;;4.53;;
28862;SDS011;15994;51.796;13.006;2023-07-09T22:08:55;5.72;;;4.55;;
28862;SDS011;15994;51.796;13.006;2023-07-09T22:11:23;6.95;;;4.28;;
28862;SDS011;15994;51.796;13.006;2023-07-09T22:13:51;7.75;;;4.43;;
28862;SDS011;15994;51.796;13.006;2023-07-09T22:16:20;6.55;;;4.35;;
28862;SDS011;15994;51.796;13.006;2023-07-09T22:18:47;6.78;;;4.30;;
28862;SDS011;15994;51.796;13.006;2023-07-09T22:21:14;8.68;;;4.18;;
28862;SDS011;15994;51.796;13.006;2023-07-09T22:23:41;7.20;;;4.40;;
28862;SDS011;15994;51.796;13.006;2023-07-09T22:26:09;4.88;;;4.20;;
28862;SDS011;15994;51.796;13.006;2023-07-09T22:28:36;7.32;;;4.70;;
28862;SDS011;15994;51.796;13.006;2023-07-09T22:31:03;7.25;;;4.47;;
28862;SDS011;15994;51.796;13.006;2023-07-09T22:33:30;6.00;;;4.22;;
28862;SDS011;15994;51.796;13.006;2023-07-09T22:35:57;7.28;;;4.32;;
28862;SDS011;15994;51.796;13.006;2023-07-09T22:38:24;6.40;;;4.15;;
28862;SDS011;15994;51.796;13.006;2023-07-09T22:40:52;5.53;;;4.47;;
28862;SDS011;15994;51.796;13.006;2023-07-09T22:43:19;6.10;;;4.47;;
28862;SDS011;15994;51.796;13.006;2023-07-09T22:45:47;6.18;;;4.22;;
28862;SDS011;15994;51.796;13.006;2023-07-09T22:48:14;5.65;;;4.30;;
28862;SDS011;15994;51.796;13.006;2023-07-09T22:50:42;6.20;;;4.32;;
28862;SDS011;15994;51.796;13.006;2023-07-09T22:53:13;6.13;;;4.55;;
28862;SDS011;15994;51.796;13.006;2023-07-09T22:55:41;11.43;;;4.75;;
28862;SDS011;15994;51.796;13.006;2023-07-09T22:58:10;9.30;;;4.35;;
28862;SDS011;15994;51.796;13.006;2023-07-09T23:00:42;11.20;;;4.80;;
28862;SDS011;15994;51.796;13.006;2023-07-09T23:03:11;6.18;;;3.90;;
28862;SDS011;15994;51.796;13.006;2023-07-09T23:05:38;6.53;;;4.35;;
28862;SDS011;15994;51.796;13.006;2023-07-09T23:08:14;7.60;;;4.20;;
28862;SDS011;15994;51.796;13.006;2023-07-09T23:10:42;6.85;;;4.70;;
28862;SDS011;15994;51.796;13.006;2023-07-09T23:13:09;6.78;;;4.50;;
28862;SDS011;15994;51.796;13.006;2023-07-09T23:15:36;6.05;;;4.45;;
28862;SDS011;15994;51.796;13.006;2023-07-09T23:18:04;5.68;;;4.50;;
28862;SDS011;15994;51.796;13.006;2023-07-09T23:20:41;5.88;;;4.03;;
28862;SDS011;15994;51.796;13.006;2023-07-09T23:23:07;6.38;;;4.60;;
28862;SDS011;15994;51.796;13.006;2023-07-09T23:25:34;7.47;;;4.72;;
28862;SDS011;15994;51.796;13.006;2023-07-09T23:28:01;6.15;;;4.07;;
28862;SDS011;15994;51.796;13.006;2023-07-09T23:30:31;7.63;;;4.65;;
28862;SDS011;15994;51.796;13.006;2023-07-09T23:33:00;6.25;;;4.40;;
28862;SDS011;15994;51.796;13.006;2023-07-09T23:35:43;9.27;;;4.60;;
28862;SDS011;15994;51.796;13.006;2023-07-09T23:38:10;6.85;;;4.32;;
28862;SDS011;15994;51.796;13.006;2023-07-09T23:40:36;7.35;;;4.68;;
28862;SDS011;15994;51.796;13.006;2023-07-09T23:43:03;7.68;;;4.82;;
28862;SDS011;15994;51.796;13.006;2023-07-09T23:45:30;5.93;;;4.35;;
28862;SDS011;15994;51.796;13.006;2023-07-09T23:47:58;5.82;;;4.40;;
28862;SDS011;15994;51.796;13.006;2023-07-09T23:50:29;7.70;;;4.80;;
28862;SDS011;15994;51.796;13.006;2023-07-09T23:52:56;6.30;;;4.25;;
28862;SDS011;15994;51.796;13.006;2023-07-09T23:55:22;7.47;;;4.60;;
28862;SDS011;15994;51.796;13.006;2023-07-09T23:57:52;6.40;;;4.57;;
